FR-0042 weather

Centre Hospitalier RĂ©gional Heliport
Dijon, Burgundy, France

Public forecast

Using degrees Celsius for public forecast. Weather courtesy of forecast.io.

METAR (pilot weather report)

Closest report is Dijon-Bourgogne Airport, 3.9 nm (7.2 km) SE. Retrieved 2019/09/22 13:30 UTC (0 seconds ago):

LFSD 221330Z AUTO VRB08KT CAVOK 27/14 Q1008

TAF (pilot weather forecast)

Forecast is more than 12 hours old.

Closest forecast is Dijon-Bourgogne Airport, 3.9 nm (7.2 km) SE. Retrieved 2015/06/01 00:11 UTC (4 years ago):

TAF LFSD 010600Z 0100/0124 CNL